sensor_id;sensor_type;location;lat;lon;timestamp;P1;durP1;ratioP1;P2;durP2;ratioP2
34900;SDS011;21112;51.976;5.660;2023-04-03T00:06:11;4.50;;;1.13;;
34900;SDS011;21112;51.976;5.660;2023-04-03T00:21:02;3.38;;;1.00;;
34900;SDS011;21112;51.976;5.660;2023-04-03T00:23:29;2.28;;;0.95;;
34900;SDS011;21112;51.976;5.660;2023-04-03T00:25:56;1.50;;;0.98;;
34900;SDS011;21112;51.976;5.660;2023-04-03T00:28:22;1.92;;;1.10;;
34900;SDS011;21112;51.976;5.660;2023-04-03T00:30:50;2.25;;;1.02;;
34900;SDS011;21112;51.976;5.660;2023-04-03T00:33:17;2.22;;;0.85;;
34900;SDS011;21112;51.976;5.660;2023-04-03T00:35:46;5.80;;;1.02;;
34900;SDS011;21112;51.976;5.660;2023-04-03T00:38:15;3.33;;;1.30;;
34900;SDS011;21112;51.976;5.660;2023-04-03T00:40:42;4.50;;;1.20;;
34900;SDS011;21112;51.976;5.660;2023-04-03T00:43:10;3.07;;;1.07;;
34900;SDS011;21112;51.976;5.660;2023-04-03T00:45:38;1.42;;;0.77;;
34900;SDS011;21112;51.976;5.660;2023-04-03T00:48:06;3.83;;;1.00;;
34900;SDS011;21112;51.976;5.660;2023-04-03T00:53:16;2.42;;;1.00;;
34900;SDS011;21112;51.976;5.660;2023-04-03T00:55:44;2.80;;;1.00;;
34900;SDS011;21112;51.976;5.660;2023-04-03T00:58:12;1.02;;;0.80;;
34900;SDS011;21112;51.976;5.660;2023-04-03T01:00:41;3.30;;;1.53;;
34900;SDS011;21112;51.976;5.660;2023-04-03T01:03:09;5.68;;;0.82;;
34900;SDS011;21112;51.976;5.660;2023-04-03T01:05:36;2.92;;;0.95;;
34900;SDS011;21112;51.976;5.660;2023-04-03T01:08:02;2.58;;;1.08;;
34900;SDS011;21112;51.976;5.660;2023-04-03T01:10:31;1.40;;;0.80;;
34900;SDS011;21112;51.976;5.660;2023-04-03T01:15:24;2.23;;;1.07;;
34900;SDS011;21112;51.976;5.660;2023-04-03T01:17:52;1.27;;;0.82;;
34900;SDS011;21112;51.976;5.660;2023-04-03T01:23:03;1.67;;;0.98;;
34900;SDS011;21112;51.976;5.660;2023-04-03T01:25:34;2.70;;;1.00;;
34900;SDS011;21112;51.976;5.660;2023-04-03T01:28:01;1.85;;;0.77;;
34900;SDS011;21112;51.976;5.660;2023-04-03T01:30:30;2.78;;;0.95;;
34900;SDS011;21112;51.976;5.660;2023-04-03T01:32:59;1.92;;;0.88;;
34900;SDS011;21112;51.976;5.660;2023-04-03T01:35:25;3.42;;;1.10;;
34900;SDS011;21112;51.976;5.660;2023-04-03T01:37:59;2.00;;;0.85;;
34900;SDS011;21112;51.976;5.660;2023-04-03T01:40:25;1.80;;;0.88;;
34900;SDS011;21112;51.976;5.660;2023-04-03T01:42:52;2.20;;;1.02;;
34900;SDS011;21112;51.976;5.660;2023-04-03T01:45:19;2.30;;;0.75;;
34900;SDS011;21112;51.976;5.660;2023-04-03T01:47:45;1.90;;;0.80;;
34900;SDS011;21112;51.976;5.660;2023-04-03T01:50:14;2.05;;;1.00;;
34900;SDS011;21112;51.976;5.660;2023-04-03T01:52:40;2.47;;;0.70;;
34900;SDS011;21112;51.976;5.660;2023-04-03T01:55:07;2.25;;;1.10;;
34900;SDS011;21112;51.976;5.660;2023-04-03T01:57:34;1.15;;;0.70;;
34900;SDS011;21112;51.976;5.660;2023-04-03T02:00:01;4.18;;;1.00;;
34900;SDS011;21112;51.976;5.660;2023-04-03T02:02:28;4.70;;;1.30;;
34900;SDS011;21112;51.976;5.660;2023-04-03T02:04:55;2.70;;;1.02;;
34900;SDS011;21112;51.976;5.660;2023-04-03T02:07:23;1.50;;;0.90;;
34900;SDS011;21112;51.976;5.660;2023-04-03T02:09:49;2.53;;;1.13;;
34900;SDS011;21112;51.976;5.660;2023-04-03T02:12:16;3.92;;;1.10;;
34900;SDS011;21112;51.976;5.660;2023-04-03T02:14:43;3.97;;;0.88;;
34900;SDS011;21112;51.976;5.660;2023-04-03T02:17:09;3.15;;;1.05;;
34900;SDS011;21112;51.976;5.660;2023-04-03T02:19:36;2.40;;;0.90;;
34900;SDS011;21112;51.976;5.660;2023-04-03T02:22:03;2.60;;;0.93;;
34900;SDS011;21112;51.976;5.660;2023-04-03T02:24:31;1.25;;;0.70;;
34900;SDS011;21112;51.976;5.660;2023-04-03T02:26:57;1.40;;;0.63;;
34900;SDS011;21112;51.976;5.660;2023-04-03T02:29:24;2.58;;;1.10;;
34900;SDS011;21112;51.976;5.660;2023-04-03T02:31:51;2.72;;;1.00;;
34900;SDS011;21112;51.976;5.660;2023-04-03T02:34:17;1.77;;;0.88;;
34900;SDS011;21112;51.976;5.660;2023-04-03T02:36:44;1.98;;;0.90;;
34900;SDS011;21112;51.976;5.660;2023-04-03T02:39:14;2.33;;;1.10;;
34900;SDS011;21112;51.976;5.660;2023-04-03T02:41:43;3.58;;;1.00;;
34900;SDS011;21112;51.976;5.660;2023-04-03T02:44:10;2.20;;;0.77;;
34900;SDS011;21112;51.976;5.660;2023-04-03T02:46:37;2.67;;;1.13;;
34900;SDS011;21112;51.976;5.660;2023-04-03T02:49:03;4.00;;;0.85;;
34900;SDS011;21112;51.976;5.660;2023-04-03T02:51:30;1.88;;;0.80;;
34900;SDS011;21112;51.976;5.660;2023-04-03T02:53:57;1.83;;;1.13;;
34900;SDS011;21112;51.976;5.660;2023-04-03T02:56:24;4.28;;;1.10;;
34900;SDS011;21112;51.976;5.660;2023-04-03T02:58:53;4.00;;;1.23;;
34900;SDS011;21112;51.976;5.660;2023-04-03T03:01:20;2.67;;;0.95;;
34900;SDS011;21112;51.976;5.660;2023-04-03T03:03:48;2.95;;;0.95;;
34900;SDS011;21112;51.976;5.660;2023-04-03T03:06:16;2.53;;;0.95;;
34900;SDS011;21112;51.976;5.660;2023-04-03T03:08:43;1.10;;;0.82;;
34900;SDS011;21112;51.976;5.660;2023-04-03T03:11:15;2.63;;;1.00;;
34900;SDS011;21112;51.976;5.660;2023-04-03T03:13:42;2.30;;;0.88;;
34900;SDS011;21112;51.976;5.660;2023-04-03T03:16:10;2.03;;;0.90;;
34900;SDS011;21112;51.976;5.660;2023-04-03T03:18:37;5.60;;;1.73;;
34900;SDS011;21112;51.976;5.660;2023-04-03T03:21:04;1.83;;;0.93;;
34900;SDS011;21112;51.976;5.660;2023-04-03T03:23:31;6.00;;;1.00;;
34900;SDS011;21112;51.976;5.660;2023-04-03T03:25:58;3.78;;;1.00;;
34900;SDS011;21112;51.976;5.660;2023-04-03T03:28:25;2.85;;;1.00;;
34900;SDS011;21112;51.976;5.660;2023-04-03T03:30:52;1.65;;;0.90;;
34900;SDS011;21112;51.976;5.660;2023-04-03T03:33:20;3.63;;;0.90;;
34900;SDS011;21112;51.976;5.660;2023-04-03T03:35:47;2.08;;;0.82;;
34900;SDS011;21112;51.976;5.660;2023-04-03T03:38:13;2.65;;;1.05;;
34900;SDS011;21112;51.976;5.660;2023-04-03T03:40:40;2.22;;;0.90;;
34900;SDS011;21112;51.976;5.660;2023-04-03T03:43:07;1.48;;;0.80;;
34900;SDS011;21112;51.976;5.660;2023-04-03T03:45:34;1.02;;;0.70;;
34900;SDS011;21112;51.976;5.660;2023-04-03T03:48:01;2.92;;;1.10;;
34900;SDS011;21112;51.976;5.660;2023-04-03T03:50:29;1.92;;;0.88;;
34900;SDS011;21112;51.976;5.660;2023-04-03T03:52:56;4.35;;;1.27;;
34900;SDS011;21112;51.976;5.660;2023-04-03T03:55:22;2.20;;;0.93;;
34900;SDS011;21112;51.976;5.660;2023-04-03T03:57:49;3.22;;;1.02;;
34900;SDS011;21112;51.976;5.660;2023-04-03T04:00:15;2.13;;;0.90;;
34900;SDS011;21112;51.976;5.660;2023-04-03T04:02:42;2.42;;;1.00;;
34900;SDS011;21112;51.976;5.660;2023-04-03T04:05:09;2.67;;;1.10;;
34900;SDS011;21112;51.976;5.660;2023-04-03T04:07:40;2.63;;;1.00;;
34900;SDS011;21112;51.976;5.660;2023-04-03T04:10:07;2.85;;;0.98;;
34900;SDS011;21112;51.976;5.660;2023-04-03T04:12:34;3.25;;;0.93;;
34900;SDS011;21112;51.976;5.660;2023-04-03T04:15:01;2.33;;;0.73;;
34900;SDS011;21112;51.976;5.660;2023-04-03T04:17:28;3.15;;;1.08;;
34900;SDS011;21112;51.976;5.660;2023-04-03T04:22:42;2.95;;;1.00;;
34900;SDS011;21112;51.976;5.660;2023-04-03T04:25:09;3.13;;;0.93;;
34900;SDS011;21112;51.976;5.660;2023-04-03T04:27:36;2.03;;;1.00;;
34900;SDS011;21112;51.976;5.660;2023-04-03T04:30:03;5.22;;;1.05;;
34900;SDS011;21112;51.976;5.660;2023-04-03T04:34:58;2.92;;;1.05;;
34900;SDS011;21112;51.976;5.660;2023-04-03T04:37:24;2.58;;;0.90;;
34900;SDS011;21112;51.976;5.660;2023-04-03T04:39:52;1.05;;;0.70;;
34900;SDS011;21112;51.976;5.660;2023-04-03T04:42:19;2.00;;;0.80;;
34900;SDS011;21112;51.976;5.660;2023-04-03T04:44:46;3.53;;;1.17;;
34900;SDS011;21112;51.976;5.660;2023-04-03T04:47:12;3.38;;;0.80;;
34900;SDS011;21112;51.976;5.660;2023-04-03T04:49:39;3.58;;;1.08;;
34900;SDS011;21112;51.976;5.660;2023-04-03T04:52:06;2.33;;;0.98;;
34900;SDS011;21112;51.976;5.660;2023-04-03T04:54:33;4.38;;;0.93;;
34900;SDS011;21112;51.976;5.660;2023-04-03T04:57:01;1.75;;;0.68;;
34900;SDS011;21112;51.976;5.660;2023-04-03T04:59:27;4.20;;;1.00;;
34900;SDS011;21112;51.976;5.660;2023-04-03T05:01:54;4.00;;;1.08;;
34900;SDS011;21112;51.976;5.660;2023-04-03T05:04:21;5.15;;;1.10;;
34900;SDS011;21112;51.976;5.660;2023-04-03T05:06:47;3.65;;;1.08;;
34900;SDS011;21112;51.976;5.660;2023-04-03T05:09:17;1.85;;;1.02;;
34900;SDS011;21112;51.976;5.660;2023-04-03T05:11:45;2.75;;;1.20;;
34900;SDS011;21112;51.976;5.660;2023-04-03T05:14:13;3.03;;;1.00;;
34900;SDS011;21112;51.976;5.660;2023-04-03T05:16:41;5.30;;;1.33;;
34900;SDS011;21112;51.976;5.660;2023-04-03T05:19:08;3.42;;;1.13;;
34900;SDS011;21112;51.976;5.660;2023-04-03T05:21:35;2.78;;;1.08;;
34900;SDS011;21112;51.976;5.660;2023-04-03T05:24:02;4.95;;;1.30;;
34900;SDS011;21112;51.976;5.660;2023-04-03T05:26:29;1.83;;;1.10;;
34900;SDS011;21112;51.976;5.660;2023-04-03T05:28:56;5.18;;;1.20;;
34900;SDS011;21112;51.976;5.660;2023-04-03T05:31:29;4.75;;;1.23;;
34900;SDS011;21112;51.976;5.660;2023-04-03T05:33:58;4.97;;;1.30;;
34900;SDS011;21112;51.976;5.660;2023-04-03T05:36:24;3.63;;;0.90;;
34900;SDS011;21112;51.976;5.660;2023-04-03T05:38:53;3.92;;;1.10;;
34900;SDS011;21112;51.976;5.660;2023-04-03T05:41:21;4.85;;;1.08;;
34900;SDS011;21112;51.976;5.660;2023-04-03T05:43:48;1.55;;;0.90;;
34900;SDS011;21112;51.976;5.660;2023-04-03T05:46:15;2.60;;;1.17;;
34900;SDS011;21112;51.976;5.660;2023-04-03T05:48:44;4.78;;;1.42;;
34900;SDS011;21112;51.976;5.660;2023-04-03T05:51:13;2.45;;;0.95;;
34900;SDS011;21112;51.976;5.660;2023-04-03T05:53:41;3.05;;;1.10;;
34900;SDS011;21112;51.976;5.660;2023-04-03T05:56:17;2.72;;;0.98;;
34900;SDS011;21112;51.976;5.660;2023-04-03T05:58:44;4.38;;;1.40;;
34900;SDS011;21112;51.976;5.660;2023-04-03T06:01:14;4.18;;;1.17;;
34900;SDS011;21112;51.976;5.660;2023-04-03T06:03:47;3.00;;;1.10;;
34900;SDS011;21112;51.976;5.660;2023-04-03T06:06:13;3.85;;;0.98;;
34900;SDS011;21112;51.976;5.660;2023-04-03T06:08:40;2.47;;;0.93;;
34900;SDS011;21112;51.976;5.660;2023-04-03T06:11:08;2.85;;;1.00;;
34900;SDS011;21112;51.976;5.660;2023-04-03T06:13:36;6.47;;;1.40;;
34900;SDS011;21112;51.976;5.660;2023-04-03T06:16:05;1.73;;;0.93;;
34900;SDS011;21112;51.976;5.660;2023-04-03T06:18:32;1.73;;;0.93;;
34900;SDS011;21112;51.976;5.660;2023-04-03T06:21:00;3.08;;;1.02;;
34900;SDS011;21112;51.976;5.660;2023-04-03T06:23:43;2.92;;;1.10;;
34900;SDS011;21112;51.976;5.660;2023-04-03T06:26:15;3.45;;;1.02;;
34900;SDS011;21112;51.976;5.660;2023-04-03T06:28:42;2.85;;;0.88;;
34900;SDS011;21112;51.976;5.660;2023-04-03T06:31:09;2.17;;;0.90;;
34900;SDS011;21112;51.976;5.660;2023-04-03T06:33:38;2.92;;;0.98;;
34900;SDS011;21112;51.976;5.660;2023-04-03T06:36:07;2.15;;;1.00;;
34900;SDS011;21112;51.976;5.660;2023-04-03T06:41:00;3.15;;;1.00;;
34900;SDS011;21112;51.976;5.660;2023-04-03T06:43:27;3.63;;;1.20;;
34900;SDS011;21112;51.976;5.660;2023-04-03T06:45:54;5.70;;;1.15;;
34900;SDS011;21112;51.976;5.660;2023-04-03T06:48:20;4.90;;;1.15;;
34900;SDS011;21112;51.976;5.660;2023-04-03T06:50:48;5.15;;;1.00;;
34900;SDS011;21112;51.976;5.660;2023-04-03T06:53:21;5.57;;;0.98;;
34900;SDS011;21112;51.976;5.660;2023-04-03T06:55:48;3.25;;;1.00;;
34900;SDS011;21112;51.976;5.660;2023-04-03T06:58:15;3.45;;;1.13;;
34900;SDS011;21112;51.976;5.660;2023-04-03T07:00:42;2.83;;;1.13;;
34900;SDS011;21112;51.976;5.660;2023-04-03T07:03:09;4.95;;;1.15;;
34900;SDS011;21112;51.976;5.660;2023-04-03T07:05:38;5.13;;;1.40;;
34900;SDS011;21112;51.976;5.660;2023-04-03T07:08:05;3.13;;;1.17;;
34900;SDS011;21112;51.976;5.660;2023-04-03T07:10:33;4.07;;;1.20;;
34900;SDS011;21112;51.976;5.660;2023-04-03T07:12:59;2.40;;;0.77;;
34900;SDS011;21112;51.976;5.660;2023-04-03T07:15:27;3.13;;;1.03;;
34900;SDS011;21112;51.976;5.660;2023-04-03T07:17:54;12.93;;;4.55;;
34900;SDS011;21112;51.976;5.660;2023-04-03T07:20:21;11.93;;;4.70;;
34900;SDS011;21112;51.976;5.660;2023-04-03T07:22:47;8.13;;;3.65;;
34900;SDS011;21112;51.976;5.660;2023-04-03T07:25:14;9.70;;;3.53;;
34900;SDS011;21112;51.976;5.660;2023-04-03T07:27:42;10.07;;;3.58;;
34900;SDS011;21112;51.976;5.660;2023-04-03T07:30:09;8.48;;;3.33;;
34900;SDS011;21112;51.976;5.660;2023-04-03T07:32:36;6.28;;;2.65;;
34900;SDS011;21112;51.976;5.660;2023-04-03T07:35:06;15.20;;;5.30;;
34900;SDS011;21112;51.976;5.660;2023-04-03T07:37:35;11.75;;;4.95;;
34900;SDS011;21112;51.976;5.660;2023-04-03T07:40:11;13.40;;;4.47;;
34900;SDS011;21112;51.976;5.660;2023-04-03T07:42:46;9.10;;;3.67;;
34900;SDS011;21112;51.976;5.660;2023-04-03T07:45:15;8.02;;;2.80;;
34900;SDS011;21112;51.976;5.660;2023-04-03T07:47:42;8.90;;;2.80;;
34900;SDS011;21112;51.976;5.660;2023-04-03T07:50:11;8.07;;;2.65;;
34900;SDS011;21112;51.976;5.660;2023-04-03T07:52:37;9.30;;;2.60;;
34900;SDS011;21112;51.976;5.660;2023-04-03T07:55:06;6.03;;;2.50;;
34900;SDS011;21112;51.976;5.660;2023-04-03T07:57:35;6.40;;;2.33;;
34900;SDS011;21112;51.976;5.660;2023-04-03T08:00:05;6.03;;;2.08;;
34900;SDS011;21112;51.976;5.660;2023-04-03T08:02:33;7.82;;;2.40;;
34900;SDS011;21112;51.976;5.660;2023-04-03T08:10:24;6.60;;;2.03;;
34900;SDS011;21112;51.976;5.660;2023-04-03T08:12:50;6.25;;;2.22;;
34900;SDS011;21112;51.976;5.660;2023-04-03T08:15:20;7.30;;;1.77;;
34900;SDS011;21112;51.976;5.660;2023-04-03T08:17:47;5.97;;;1.73;;
34900;SDS011;21112;51.976;5.660;2023-04-03T08:20:15;4.40;;;1.40;;
34900;SDS011;21112;51.976;5.660;2023-04-03T08:22:42;4.30;;;1.70;;
34900;SDS011;21112;51.976;5.660;2023-04-03T08:25:14;4.78;;;1.60;;
34900;SDS011;21112;51.976;5.660;2023-04-03T08:27:42;4.57;;;1.38;;
34900;SDS011;21112;51.976;5.660;2023-04-03T08:30:11;3.20;;;1.30;;
34900;SDS011;21112;51.976;5.660;2023-04-03T08:32:42;4.63;;;1.20;;
34900;SDS011;21112;51.976;5.660;2023-04-03T08:35:09;5.28;;;1.25;;
34900;SDS011;21112;51.976;5.660;2023-04-03T08:37:37;2.25;;;0.95;;
34900;SDS011;21112;51.976;5.660;2023-04-03T08:40:06;4.82;;;1.30;;
34900;SDS011;21112;51.976;5.660;2023-04-03T08:42:41;2.17;;;0.80;;
34900;SDS011;21112;51.976;5.660;2023-04-03T08:45:14;4.53;;;1.25;;
34900;SDS011;21112;51.976;5.660;2023-04-03T08:47:52;2.88;;;1.10;;
34900;SDS011;21112;51.976;5.660;2023-04-03T08:50:23;1.45;;;0.75;;
34900;SDS011;21112;51.976;5.660;2023-04-03T08:52:53;2.28;;;0.95;;
34900;SDS011;21112;51.976;5.660;2023-04-03T08:55:25;3.35;;;0.80;;
34900;SDS011;21112;51.976;5.660;2023-04-03T08:58:03;3.20;;;0.80;;
34900;SDS011;21112;51.976;5.660;2023-04-03T09:00:48;1.30;;;0.63;;
34900;SDS011;21112;51.976;5.660;2023-04-03T09:03:20;2.60;;;0.80;;
34900;SDS011;21112;51.976;5.660;2023-04-03T09:05:48;2.15;;;0.68;;
34900;SDS011;21112;51.976;5.660;2023-04-03T09:08:23;0.90;;;0.47;;
34900;SDS011;21112;51.976;5.660;2023-04-03T09:10:58;1.05;;;0.60;;
34900;SDS011;21112;51.976;5.660;2023-04-03T09:13:52;0.77;;;0.50;;
34900;SDS011;21112;51.976;5.660;2023-04-03T09:16:25;0.55;;;0.50;;
34900;SDS011;21112;51.976;5.660;2023-04-03T09:19:00;1.05;;;0.50;;
34900;SDS011;21112;51.976;5.660;2023-04-03T09:21:30;1.00;;;0.52;;
34900;SDS011;21112;51.976;5.660;2023-04-03T09:23:59;2.20;;;0.85;;
34900;SDS011;21112;51.976;5.660;2023-04-03T09:26:33;2.15;;;0.80;;
34900;SDS011;21112;51.976;5.660;2023-04-03T09:29:08;1.45;;;0.60;;
34900;SDS011;21112;51.976;5.660;2023-04-03T09:31:45;1.25;;;0.60;;
34900;SDS011;21112;51.976;5.660;2023-04-03T09:34:15;1.83;;;0.80;;
34900;SDS011;21112;51.976;5.660;2023-04-03T09:36:46;0.77;;;0.35;;
34900;SDS011;21112;51.976;5.660;2023-04-03T09:39:15;2.20;;;0.40;;
34900;SDS011;21112;51.976;5.660;2023-04-03T09:41:54;2.53;;;0.90;;
34900;SDS011;21112;51.976;5.660;2023-04-03T09:44:23;2.80;;;1.00;;
34900;SDS011;21112;51.976;5.660;2023-04-03T09:46:50;3.83;;;1.50;;
34900;SDS011;21112;51.976;5.660;2023-04-03T09:49:18;2.85;;;1.25;;
34900;SDS011;21112;51.976;5.660;2023-04-03T09:51:49;1.38;;;0.60;;
34900;SDS011;21112;51.976;5.660;2023-04-03T09:54:36;2.22;;;0.80;;
34900;SDS011;21112;51.976;5.660;2023-04-03T09:57:20;0.40;;;0.30;;
34900;SDS011;21112;51.976;5.660;2023-04-03T10:02:22;0.33;;;0.30;;
34900;SDS011;21112;51.976;5.660;2023-04-03T10:04:51;0.30;;;0.30;;
34900;SDS011;21112;51.976;5.660;2023-04-03T10:10:16;1.77;;;0.73;;
34900;SDS011;21112;51.976;5.660;2023-04-03T10:13:05;2.72;;;0.43;;
34900;SDS011;21112;51.976;5.660;2023-04-03T10:15:39;1.42;;;0.47;;
34900;SDS011;21112;51.976;5.660;2023-04-03T10:18:07;3.17;;;1.00;;
34900;SDS011;21112;51.976;5.660;2023-04-03T10:20:44;7.95;;;2.05;;
34900;SDS011;21112;51.976;5.660;2023-04-03T10:23:21;4.63;;;1.67;;
34900;SDS011;21112;51.976;5.660;2023-04-03T10:25:50;1.65;;;0.90;;
34900;SDS011;21112;51.976;5.660;2023-04-03T10:28:33;1.97;;;0.70;;
34900;SDS011;21112;51.976;5.660;2023-04-03T10:31:10;3.42;;;0.70;;
34900;SDS011;21112;51.976;5.660;2023-04-03T10:33:42;1.25;;;0.50;;
34900;SDS011;21112;51.976;5.660;2023-04-03T10:38:45;1.65;;;0.60;;
34900;SDS011;21112;51.976;5.660;2023-04-03T10:41:15;1.67;;;0.47;;
34900;SDS011;21112;51.976;5.660;2023-04-03T10:43:44;1.15;;;0.45;;
34900;SDS011;21112;51.976;5.660;2023-04-03T10:46:16;2.03;;;0.50;;
34900;SDS011;21112;51.976;5.660;2023-04-03T10:48:52;1.23;;;0.60;;
34900;SDS011;21112;51.976;5.660;2023-04-03T10:51:23;1.48;;;0.88;;
34900;SDS011;21112;51.976;5.660;2023-04-03T10:53:57;1.95;;;0.85;;
34900;SDS011;21112;51.976;5.660;2023-04-03T10:56:30;2.78;;;1.10;;
34900;SDS011;21112;51.976;5.660;2023-04-03T10:58:58;2.92;;;0.82;;
34900;SDS011;21112;51.976;5.660;2023-04-03T11:01:38;2.15;;;0.90;;
34900;SDS011;21112;51.976;5.660;2023-04-03T11:04:22;3.95;;;0.80;;
34900;SDS011;21112;51.976;5.660;2023-04-03T11:06:51;1.10;;;0.60;;
34900;SDS011;21112;51.976;5.660;2023-04-03T11:09:23;2.83;;;0.70;;
34900;SDS011;21112;51.976;5.660;2023-04-03T11:11:51;3.30;;;0.60;;
34900;SDS011;21112;51.976;5.660;2023-04-03T11:14:22;1.10;;;0.43;;
34900;SDS011;21112;51.976;5.660;2023-04-03T11:19:05;1.48;;;0.60;;
34900;SDS011;21112;51.976;5.660;2023-04-03T11:21:42;2.23;;;0.93;;
34900;SDS011;21112;51.976;5.660;2023-04-03T11:24:11;0.57;;;0.40;;
34900;SDS011;21112;51.976;5.660;2023-04-03T11:26:42;1.63;;;0.47;;
34900;SDS011;21112;51.976;5.660;2023-04-03T11:29:09;3.55;;;0.77;;
34900;SDS011;21112;51.976;5.660;2023-04-03T11:31:41;1.05;;;0.45;;
34900;SDS011;21112;51.976;5.660;2023-04-03T11:34:18;2.03;;;0.65;;
34900;SDS011;21112;51.976;5.660;2023-04-03T11:42:04;5.85;;;1.33;;
34900;SDS011;21112;51.976;5.660;2023-04-03T11:44:42;1.55;;;0.80;;
34900;SDS011;21112;51.976;5.660;2023-04-03T11:47:09;3.08;;;0.95;;
34900;SDS011;21112;51.976;5.660;2023-04-03T11:49:53;2.38;;;1.05;;
34900;SDS011;21112;51.976;5.660;2023-04-03T11:52:55;7.57;;;0.90;;
34900;SDS011;21112;51.976;5.660;2023-04-03T11:58:13;0.73;;;0.57;;
34900;SDS011;21112;51.976;5.660;2023-04-03T12:00:47;1.08;;;0.60;;
34900;SDS011;21112;51.976;5.660;2023-04-03T12:08:43;1.88;;;0.45;;
34900;SDS011;21112;51.976;5.660;2023-04-03T12:18:56;0.30;;;0.30;;
34900;SDS011;21112;51.976;5.660;2023-04-03T12:21:24;2.60;;;0.70;;
34900;SDS011;21112;51.976;5.660;2023-04-03T12:24:22;1.58;;;0.50;;
34900;SDS011;21112;51.976;5.660;2023-04-03T12:26:50;2.63;;;0.80;;
34900;SDS011;21112;51.976;5.660;2023-04-03T12:29:17;2.60;;;0.75;;
34900;SDS011;21112;51.976;5.660;2023-04-03T12:31:49;3.45;;;0.82;;
34900;SDS011;21112;51.976;5.660;2023-04-03T12:34:34;3.28;;;0.88;;
34900;SDS011;21112;51.976;5.660;2023-04-03T12:37:03;1.48;;;0.85;;
34900;SDS011;21112;51.976;5.660;2023-04-03T12:47:19;1.88;;;0.80;;
34900;SDS011;21112;51.976;5.660;2023-04-03T12:49:49;3.28;;;0.90;;
34900;SDS011;21112;51.976;5.660;2023-04-03T13:00:00;2.63;;;0.70;;
34900;SDS011;21112;51.976;5.660;2023-04-03T13:02:44;5.20;;;0.75;;
34900;SDS011;21112;51.976;5.660;2023-04-03T13:05:17;1.83;;;0.60;;
34900;SDS011;21112;51.976;5.660;2023-04-03T13:12:58;4.25;;;0.82;;
34900;SDS011;21112;51.976;5.660;2023-04-03T13:18:25;2.60;;;0.70;;
34900;SDS011;21112;51.976;5.660;2023-04-03T13:20:53;2.22;;;0.65;;
34900;SDS011;21112;51.976;5.660;2023-04-03T13:23:20;3.20;;;0.90;;
34900;SDS011;21112;51.976;5.660;2023-04-03T13:25:48;2.95;;;0.88;;
34900;SDS011;21112;51.976;5.660;2023-04-03T13:28:19;1.63;;;0.68;;
34900;SDS011;21112;51.976;5.660;2023-04-03T13:30:56;3.20;;;1.00;;
34900;SDS011;21112;51.976;5.660;2023-04-03T13:40:49;2.88;;;0.70;;
34900;SDS011;21112;51.976;5.660;2023-04-03T13:53:08;2.50;;;0.90;;
34900;SDS011;21112;51.976;5.660;2023-04-03T13:55:51;2.58;;;0.80;;
34900;SDS011;21112;51.976;5.660;2023-04-03T13:58:22;4.50;;;0.90;;
34900;SDS011;21112;51.976;5.660;2023-04-03T14:00:52;2.75;;;0.77;;
34900;SDS011;21112;51.976;5.660;2023-04-03T14:03:19;2.33;;;0.80;;
34900;SDS011;21112;51.976;5.660;2023-04-03T14:05:50;2.08;;;0.70;;
34900;SDS011;21112;51.976;5.660;2023-04-03T14:11:20;3.05;;;1.00;;
34900;SDS011;21112;51.976;5.660;2023-04-03T14:13:52;3.15;;;0.82;;
34900;SDS011;21112;51.976;5.660;2023-04-03T14:30:20;1.52;;;0.63;;
34900;SDS011;21112;51.976;5.660;2023-04-03T14:32:50;2.15;;;0.88;;
34900;SDS011;21112;51.976;5.660;2023-04-03T14:37:45;1.58;;;0.80;;
34900;SDS011;21112;51.976;5.660;2023-04-03T14:51:14;2.47;;;0.82;;
34900;SDS011;21112;51.976;5.660;2023-04-03T14:53:41;3.85;;;0.95;;
34900;SDS011;21112;51.976;5.660;2023-04-03T14:56:11;2.90;;;1.08;;
34900;SDS011;21112;51.976;5.660;2023-04-03T14:58:37;3.80;;;1.10;;
34900;SDS011;21112;51.976;5.660;2023-04-03T15:01:04;1.73;;;0.80;;
34900;SDS011;21112;51.976;5.660;2023-04-03T15:03:36;2.92;;;0.90;;
34900;SDS011;21112;51.976;5.660;2023-04-03T15:06:03;6.07;;;1.08;;
34900;SDS011;21112;51.976;5.660;2023-04-03T15:11:43;2.75;;;0.98;;
34900;SDS011;21112;51.976;5.660;2023-04-03T15:14:10;4.95;;;1.00;;
34900;SDS011;21112;51.976;5.660;2023-04-03T15:16:43;5.05;;;1.35;;
34900;SDS011;21112;51.976;5.660;2023-04-03T15:21:52;3.72;;;1.05;;
34900;SDS011;21112;51.976;5.660;2023-04-03T15:24:19;2.50;;;0.85;;
34900;SDS011;21112;51.976;5.660;2023-04-03T15:26:47;7.57;;;1.10;;
34900;SDS011;21112;51.976;5.660;2023-04-03T15:31:59;5.00;;;1.30;;
34900;SDS011;21112;51.976;5.660;2023-04-03T15:34:26;1.88;;;0.68;;
34900;SDS011;21112;51.976;5.660;2023-04-03T15:36:56;4.35;;;1.10;;
34900;SDS011;21112;51.976;5.660;2023-04-03T15:39:24;4.38;;;1.60;;
34900;SDS011;21112;51.976;5.660;2023-04-03T15:41:57;10.52;;;2.80;;
34900;SDS011;21112;51.976;5.660;2023-04-03T15:44:29;9.35;;;2.70;;
34900;SDS011;21112;51.976;5.660;2023-04-03T15:51:50;4.10;;;1.20;;
34900;SDS011;21112;51.976;5.660;2023-04-03T15:54:18;2.75;;;1.05;;
34900;SDS011;21112;51.976;5.660;2023-04-03T15:56:51;4.63;;;1.00;;
34900;SDS011;21112;51.976;5.660;2023-04-03T16:01:44;2.33;;;0.90;;
34900;SDS011;21112;51.976;5.660;2023-04-03T16:04:15;3.50;;;1.10;;
34900;SDS011;21112;51.976;5.660;2023-04-03T16:06:46;3.17;;;1.25;;
34900;SDS011;21112;51.976;5.660;2023-04-03T16:11:17;5.90;;;1.70;;
34900;SDS011;21112;51.976;5.660;2023-04-03T16:13:45;16.27;;;5.47;;
34900;SDS011;21112;51.976;5.660;2023-04-03T16:16:17;13.55;;;4.22;;
34900;SDS011;21112;51.976;5.660;2023-04-03T16:18:45;9.52;;;3.03;;
34900;SDS011;21112;51.976;5.660;2023-04-03T16:21:13;9.13;;;2.10;;
34900;SDS011;21112;51.976;5.660;2023-04-03T16:23:40;5.43;;;1.60;;
34900;SDS011;21112;51.976;5.660;2023-04-03T16:26:10;8.07;;;1.40;;
34900;SDS011;21112;51.976;5.660;2023-04-03T16:34:20;3.38;;;1.10;;
34900;SDS011;21112;51.976;5.660;2023-04-03T16:36:50;3.85;;;0.90;;
34900;SDS011;21112;51.976;5.660;2023-04-03T16:47:44;5.05;;;1.10;;
34900;SDS011;21112;51.976;5.660;2023-04-03T16:50:12;9.15;;;1.88;;
34900;SDS011;21112;51.976;5.660;2023-04-03T16:52:39;5.60;;;1.60;;
34900;SDS011;21112;51.976;5.660;2023-04-03T16:55:09;2.63;;;1.23;;
34900;SDS011;21112;51.976;5.660;2023-04-03T16:57:39;4.68;;;1.33;;
34900;SDS011;21112;51.976;5.660;2023-04-03T17:00:08;3.45;;;1.08;;
34900;SDS011;21112;51.976;5.660;2023-04-03T17:02:35;3.10;;;1.13;;
34900;SDS011;21112;51.976;5.660;2023-04-03T17:05:04;7.03;;;1.40;;
34900;SDS011;21112;51.976;5.660;2023-04-03T17:07:31;2.22;;;1.13;;
34900;SDS011;21112;51.976;5.660;2023-04-03T17:09:59;7.28;;;1.35;;
34900;SDS011;21112;51.976;5.660;2023-04-03T17:12:27;5.88;;;1.40;;
34900;SDS011;21112;51.976;5.660;2023-04-03T17:14:55;7.38;;;1.15;;
34900;SDS011;21112;51.976;5.660;2023-04-03T17:17:25;4.47;;;1.60;;
34900;SDS011;21112;51.976;5.660;2023-04-03T17:22:35;9.35;;;2.30;;
34900;SDS011;21112;51.976;5.660;2023-04-03T17:25:02;6.43;;;2.17;;
34900;SDS011;21112;51.976;5.660;2023-04-03T17:27:30;5.22;;;2.13;;
34900;SDS011;21112;51.976;5.660;2023-04-03T17:29:57;5.40;;;2.20;;
34900;SDS011;21112;51.976;5.660;2023-04-03T17:32:29;8.75;;;1.80;;
34900;SDS011;21112;51.976;5.660;2023-04-03T17:35:01;7.07;;;1.95;;
34900;SDS011;21112;51.976;5.660;2023-04-03T17:37:28;5.07;;;1.90;;
34900;SDS011;21112;51.976;5.660;2023-04-03T17:39:56;3.85;;;1.60;;
34900;SDS011;21112;51.976;5.660;2023-04-03T17:42:23;5.32;;;1.80;;
34900;SDS011;21112;51.976;5.660;2023-04-03T17:44:49;5.18;;;1.73;;
34900;SDS011;21112;51.976;5.660;2023-04-03T17:47:16;6.65;;;1.70;;
34900;SDS011;21112;51.976;5.660;2023-04-03T17:49:43;3.03;;;1.45;;
34900;SDS011;21112;51.976;5.660;2023-04-03T17:52:10;3.70;;;1.63;;
34900;SDS011;21112;51.976;5.660;2023-04-03T17:54:37;4.32;;;1.45;;
34900;SDS011;21112;51.976;5.660;2023-04-03T18:02:22;4.28;;;1.30;;